createdAt,value
2024-01-18T00:02:50.381Z,32.88
2024-01-18T00:06:50.477Z,32.62
2024-01-18T00:10:50.525Z,32.88
2024-01-18T00:14:50.677Z,33.91
2024-01-18T00:18:50.937Z,33.85
2024-01-18T00:22:50.881Z,33.32
2024-01-18T00:26:50.965Z,33.88
2024-01-18T00:30:51.127Z,33.05
2024-01-18T00:34:51.194Z,33.73
2024-01-18T00:38:51.357Z,33.46
2024-01-18T00:42:51.494Z,33.46
2024-01-18T00:46:51.563Z,33.16
2024-01-18T00:50:51.712Z,32.63
2024-01-18T00:54:51.786Z,33.11
2024-01-18T00:58:51.881Z,32.82
2024-01-18T01:02:51.989Z,32.83
2024-01-18T01:06:52.096Z,33.18
2024-01-18T01:10:52.239Z,32.94
2024-01-18T01:14:52.387Z,33.24
2024-01-18T01:18:52.490Z,33.18
2024-01-18T01:22:52.591Z,33.44
2024-01-18T01:26:52.761Z,33.85
2024-01-18T01:30:52.764Z,32.86
2024-01-18T01:34:52.994Z,33.46
2024-01-18T01:38:53.053Z,33.46
2024-01-18T01:42:53.137Z,33.46
2024-01-18T01:46:53.269Z,32.5
2024-01-18T01:50:53.360Z,33.73
2024-01-18T01:54:53.517Z,33
2024-01-18T01:58:53.624Z,33.38
2024-01-18T02:02:53.776Z,33.16
2024-01-18T02:06:53.913Z,33.14
2024-01-18T02:10:53.932Z,33.55
2024-01-18T02:14:54.062Z,38.82
2024-01-18T02:18:54.187Z,40
2024-01-18T02:22:54.261Z,34.92
2024-01-18T02:26:54.436Z,33.75
2024-01-18T02:30:54.500Z,33.22
2024-01-18T02:34:54.592Z,33.88
2024-01-18T02:38:54.750Z,33.98
2024-01-18T02:42:54.809Z,33.65
2024-01-18T02:46:54.976Z,34.31
2024-01-18T02:50:55.196Z,34.13
2024-01-18T02:54:55.141Z,34.31
2024-01-18T02:58:55.318Z,34.12
2024-01-18T03:02:55.427Z,33.78
2024-01-18T03:06:55.488Z,33.63
2024-01-18T03:10:55.625Z,34.09
2024-01-18T03:14:55.818Z,33.97
2024-01-18T03:18:55.933Z,33.55
2024-01-18T03:22:55.951Z,34.05
2024-01-18T03:26:56.081Z,34.65
2024-01-18T03:30:56.200Z,34.42
2024-01-18T03:34:56.356Z,34.26
2024-01-18T03:38:56.431Z,34.21
2024-01-18T03:42:56.544Z,33.98
2024-01-18T03:46:56.640Z,34.01
2024-01-18T03:50:56.823Z,33.44
2024-01-18T03:54:56.852Z,34.35
2024-01-18T03:58:56.953Z,34.35
2024-01-18T04:02:57.185Z,33.65
2024-01-18T04:06:57.285Z,34.35
2024-01-18T04:10:57.355Z,34.4
2024-01-18T04:14:57.466Z,35.33
2024-01-18T04:18:57.604Z,34.92
2024-01-18T04:22:57.627Z,35.63
2024-01-18T04:26:57.765Z,41.22
2024-01-18T04:30:57.865Z,36.24
2024-01-18T04:34:58.084Z,34.51
2024-01-18T04:38:58.129Z,35.69
2024-01-18T04:42:58.183Z,34.94
2024-01-18T04:46:58.321Z,34.29
2024-01-18T04:50:58.461Z,35.58
2024-01-18T04:54:58.561Z,36.16
2024-01-18T04:58:58.725Z,34.73
2024-01-18T05:02:58.782Z,35.76
2024-01-18T05:06:58.908Z,35.21
2024-01-18T05:10:59.014Z,36.78
2024-01-18T05:14:59.175Z,35.47
2024-01-18T05:18:59.293Z,34.93
2024-01-18T05:22:59.345Z,34.82
2024-01-18T05:26:59.453Z,34.93
2024-01-18T05:30:59.614Z,35.74
2024-01-18T05:34:59.729Z,34.59
2024-01-18T05:38:59.862Z,35.48
2024-01-18T05:42:59.934Z,34.52
2024-01-18T05:47:00.067Z,34.04
2024-01-18T05:51:00.166Z,35.06
2024-01-18T05:55:00.398Z,35.36
2024-01-18T05:59:00.366Z,34.8
2024-01-18T06:03:00.539Z,35.29
2024-01-18T06:07:00.667Z,35.16
2024-01-18T06:11:00.678Z,35.47
2024-01-18T06:15:00.897Z,34.92
2024-01-18T06:19:01.126Z,35.64
2024-01-18T06:23:01.029Z,35.41
2024-01-18T06:27:01.317Z,35.37
2024-01-18T06:31:01.235Z,35.53
2024-01-18T06:35:01.465Z,35.53
2024-01-18T06:39:01.725Z,35.69
2024-01-18T06:43:01.668Z,35.98
2024-01-18T06:47:01.750Z,35.88
2024-01-18T06:51:01.891Z,35.58
2024-01-18T06:55:02.043Z,35.5
2024-01-18T06:59:02.060Z,36
2024-01-18T07:03:02.299Z,40.8
2024-01-18T07:07:02.365Z,35.63
2024-01-18T07:11:02.489Z,36.07
2024-01-18T07:15:02.655Z,35.93
2024-01-18T07:19:02.899Z,35.72
2024-01-18T07:23:02.721Z,35.71
2024-01-18T07:27:02.904Z,36.14
2024-01-18T07:31:02.979Z,35.36
2024-01-18T07:35:03.071Z,36.14
2024-01-18T07:39:03.203Z,36.42
2024-01-18T07:43:03.336Z,36.24
2024-01-18T07:47:03.423Z,36.23
2024-01-18T07:51:03.605Z,35.5
2024-01-18T07:55:03.613Z,35.39
2024-01-18T07:59:03.745Z,36.67
2024-01-18T08:03:03.949Z,35.82
2024-01-18T08:07:04.076Z,36.07
2024-01-18T08:11:04.109Z,37.33
2024-01-18T08:15:04.229Z,36.23
2024-01-18T08:19:04.448Z,36.36
2024-01-18T08:23:04.398Z,36.32
2024-01-18T08:27:04.532Z,37.61
2024-01-18T08:31:04.695Z,36.24
2024-01-18T08:35:04.817Z,36.56
2024-01-18T08:39:04.884Z,37.31
2024-01-18T08:43:04.974Z,35.64
2024-01-18T08:47:05.130Z,37.65
2024-01-18T08:51:05.293Z,36.6
2024-01-18T08:55:05.363Z,35.98
2024-01-18T08:59:05.436Z,35.32
2024-01-18T09:03:05.619Z,35.58
2024-01-18T09:07:05.747Z,35.76
2024-01-18T09:11:05.775Z,37.06
2024-01-18T09:15:05.942Z,36.08
2024-01-18T09:19:13.914Z,36.45
2024-01-18T09:23:12.579Z,36.26
2024-01-18T09:27:06.321Z,36.39
2024-01-18T09:31:06.429Z,37.08
2024-01-18T09:35:06.554Z,37.31
2024-01-18T09:39:06.631Z,36.39
2024-01-18T09:43:06.664Z,36.24
2024-01-18T09:47:06.834Z,36.53
2024-01-18T09:51:06.963Z,37.22
2024-01-18T09:55:07.064Z,35.69
2024-01-18T09:59:07.163Z,35.98
2024-01-18T10:03:07.329Z,35.46
2024-01-18T10:07:07.591Z,35.5
2024-01-18T10:11:07.571Z,35.74
2024-01-18T10:15:07.777Z,36
2024-01-18T10:19:07.901Z,35.14
2024-01-18T10:23:07.928Z,36.26
2024-01-18T10:27:08.076Z,35.5
2024-01-18T10:31:08.126Z,35.69
2024-01-18T10:35:08.403Z,35.14
2024-01-18T10:39:08.373Z,35.18
2024-01-18T10:43:08.479Z,36.23
2024-01-18T10:47:08.564Z,36.09
2024-01-18T10:51:08.715Z,36.32
2024-01-18T10:55:09.724Z,36
2024-01-18T10:59:08.905Z,35.72
2024-01-18T11:03:09.142Z,38.4
2024-01-18T11:07:09.221Z,36.23
2024-01-18T11:11:09.292Z,36.6
2024-01-18T11:15:09.451Z,35.29
2024-01-18T11:19:09.640Z,35.25
2024-01-18T11:23:09.600Z,35.5
2024-01-18T11:27:09.780Z,35
2024-01-18T11:31:09.828Z,36.09
2024-01-18T11:35:10.005Z,35.48
2024-01-18T11:39:10.045Z,35.43
2024-01-18T11:43:10.205Z,36.16
2024-01-18T11:47:10.349Z,36.36
2024-01-18T11:51:10.407Z,35.2
2024-01-18T11:55:10.491Z,35.47
2024-01-18T11:59:10.618Z,36.14
2024-01-18T12:03:10.788Z,35.69
2024-01-18T12:07:10.924Z,36.24
2024-01-18T12:11:11.013Z,35.72
2024-01-18T12:15:11.121Z,36.52
2024-01-18T12:19:11.271Z,35.47
2024-01-18T12:23:11.342Z,36
2024-01-18T12:27:11.513Z,35.78
2024-01-18T12:31:11.663Z,36.24
2024-01-18T12:35:11.636Z,36.33
2024-01-18T12:39:12.009Z,36
2024-01-18T12:43:11.856Z,36.36
2024-01-18T12:47:11.962Z,36.71
2024-01-18T12:51:12.164Z,36.39
2024-01-18T12:55:12.161Z,36.98
2024-01-18T12:59:12.289Z,36.47
2024-01-18T13:03:12.463Z,36.6
2024-01-18T13:07:12.563Z,35.14
2024-01-18T13:11:12.662Z,36
2024-01-18T13:15:12.873Z,37.33
2024-01-18T13:19:12.937Z,36.47
2024-01-18T13:23:13.027Z,36.47
2024-01-18T13:27:13.095Z,35.69
2024-01-18T13:31:13.291Z,36.07
2024-01-18T13:35:13.425Z,36.47
2024-01-18T13:39:13.590Z,35.89
2024-01-18T13:43:13.581Z,36.96
2024-01-18T13:47:13.652Z,36.21
2024-01-18T13:51:13.779Z,36.67
2024-01-18T13:55:13.953Z,36.52
2024-01-18T13:59:14.016Z,36.45
2024-01-18T14:03:14.195Z,36.64
2024-01-18T14:07:14.321Z,36.27
2024-01-18T14:11:14.890Z,36.12
2024-01-18T14:15:14.510Z,37.05
2024-01-18T14:19:14.711Z,36.24
2024-01-18T14:23:14.664Z,36.2
2024-01-18T14:27:14.788Z,36.52
2024-01-18T14:31:14.920Z,36.53
2024-01-18T14:35:15.039Z,36.56
2024-01-18T14:39:15.161Z,35.94
2024-01-18T14:43:15.247Z,36.8
2024-01-18T14:47:15.366Z,36.96
2024-01-18T14:51:15.503Z,36.27
2024-01-18T14:55:15.613Z,36.36
2024-01-18T14:59:15.720Z,35.92
2024-01-18T15:03:15.988Z,35.82
2024-01-18T15:07:16.025Z,36.78
2024-01-18T15:11:16.060Z,37.87
2024-01-18T15:15:16.193Z,36.99
2024-01-18T15:19:17.669Z,37.32
2024-01-18T15:23:16.393Z,37.47
2024-01-18T15:27:16.476Z,37.73
2024-01-18T15:31:16.576Z,36.99
2024-01-18T15:35:16.905Z,38.44
2024-01-18T15:39:16.899Z,36.71
2024-01-18T15:43:16.943Z,37.18
2024-01-18T15:47:17.036Z,37.07
2024-01-18T15:51:17.201Z,37.87
2024-01-18T15:55:17.277Z,38.27
2024-01-18T15:59:17.387Z,37.55
2024-01-18T16:03:17.652Z,37.78
2024-01-18T16:07:17.640Z,37.8
2024-01-18T16:11:17.717Z,38.15
2024-01-18T16:15:17.947Z,38.4
2024-01-18T16:19:18.088Z,38.16
2024-01-18T16:23:18.071Z,37.71
2024-01-18T16:27:18.261Z,37.15
2024-01-18T16:31:18.353Z,37.31
2024-01-18T16:35:18.445Z,37.76
2024-01-18T16:39:18.546Z,38.13
2024-01-18T16:43:18.644Z,37.5
2024-01-18T16:47:18.746Z,38.67
2024-01-18T16:51:18.905Z,38.54
2024-01-18T16:55:18.971Z,37.88
2024-01-18T16:59:19.070Z,37.27
2024-01-18T17:03:19.187Z,42.67
2024-01-18T17:07:19.537Z,39.15
2024-01-18T17:11:21.172Z,37.76
2024-01-18T17:15:19.526Z,37.93
2024-01-18T17:19:19.668Z,38.05
2024-01-18T17:23:19.760Z,38.75
2024-01-18T17:27:19.873Z,38.31
2024-01-18T17:31:19.998Z,37.44
2024-01-18T17:35:20.089Z,38.16
2024-01-18T17:39:20.204Z,37.8
2024-01-18T17:43:20.423Z,37.34
2024-01-18T17:47:21.091Z,37.11
2024-01-18T17:51:20.646Z,37.53
2024-01-18T17:55:20.734Z,37.07
2024-01-18T17:59:20.785Z,38.04
2024-01-18T18:03:20.894Z,37.33
2024-01-18T18:07:21.040Z,37.31
2024-01-18T18:11:21.208Z,37.6
2024-01-18T18:15:21.266Z,37.76
2024-01-18T18:19:21.394Z,37.78
2024-01-18T18:23:21.513Z,38.15
2024-01-18T18:27:21.542Z,37.34
2024-01-18T18:31:21.666Z,37.88
2024-01-18T18:35:21.847Z,38.4
2024-01-18T18:39:21.934Z,37.8
2024-01-18T18:43:22.008Z,36.47
2024-01-18T18:47:22.159Z,37.65
2024-01-18T18:51:22.153Z,37.73
2024-01-18T18:55:22.362Z,36.89
2024-01-18T18:59:22.530Z,37.07
2024-01-18T19:03:22.588Z,36.88
2024-01-18T19:07:22.684Z,37.08
2024-01-18T19:11:22.826Z,36.62
2024-01-18T19:15:22.940Z,37.1
2024-01-18T19:19:23.131Z,36.56
2024-01-18T19:23:23.151Z,36.45
2024-01-18T19:27:23.259Z,36.24
2024-01-18T19:31:23.370Z,36.89
2024-01-18T19:35:23.496Z,36.24
2024-01-18T19:39:26.122Z,36.16
2024-01-18T19:43:23.735Z,36.94
2024-01-18T19:47:23.925Z,36.56
2024-01-18T19:51:23.954Z,36.66
2024-01-18T19:55:24.047Z,36.79
2024-01-18T19:59:24.351Z,36.75
2024-01-18T20:03:24.348Z,36.71
2024-01-18T20:07:24.426Z,37.03
2024-01-18T20:11:24.509Z,36
2024-01-18T20:15:24.602Z,35.79
2024-01-18T20:19:24.764Z,36.75
2024-01-18T20:23:24.925Z,37.11
2024-01-18T20:27:24.946Z,35.69
2024-01-18T20:31:25.068Z,36.84
2024-01-18T20:35:25.240Z,36.53
2024-01-18T20:39:25.288Z,36.45
2024-01-18T20:43:25.435Z,36.27
2024-01-18T20:47:25.602Z,36.6
2024-01-18T20:51:25.620Z,35.58
2024-01-18T20:55:25.746Z,36.14
2024-01-18T20:59:25.898Z,36.56
2024-01-18T21:03:26.004Z,36.07
2024-01-18T21:07:26.101Z,35.13
2024-01-18T21:11:26.180Z,35.86
2024-01-18T21:15:26.281Z,36.24
2024-01-18T21:19:26.476Z,35.86
2024-01-18T21:23:26.629Z,36.88
2024-01-18T21:27:26.663Z,36.89
2024-01-18T21:31:26.750Z,36.89
2024-01-18T21:35:26.947Z,36.33
2024-01-18T21:39:26.977Z,36.89
2024-01-18T21:43:27.107Z,35.76
2024-01-18T21:47:27.287Z,36.45
2024-01-18T21:51:27.384Z,35.8
2024-01-18T21:55:27.448Z,35.8
2024-01-18T21:59:36.168Z,36
2024-01-18T21:59:42.206Z,36
2024-01-18T22:03:27.661Z,36.14
2024-01-18T22:07:27.909Z,35.45
2024-01-18T22:11:27.936Z,35.98
2024-01-18T22:15:27.973Z,36.94
2024-01-18T22:19:40.055Z,36.21
2024-01-18T22:19:46.584Z,36.21
2024-01-18T22:19:58.706Z,36.21
2024-01-18T22:20:06.491Z,36.21
2024-01-18T22:23:28.306Z,35.37
2024-01-18T22:27:28.360Z,35.64
2024-01-18T22:31:28.474Z,35.58
2024-01-18T22:35:28.597Z,36.39
2024-01-18T22:39:28.706Z,35.58
2024-01-18T22:43:28.832Z,35.8
2024-01-18T22:47:28.928Z,35.54
2024-01-18T22:51:29.037Z,35.36
2024-01-18T22:55:29.142Z,34.94
2024-01-18T22:59:29.249Z,35.8
2024-01-18T23:03:29.384Z,35.4
2024-01-18T23:07:29.509Z,35.59
2024-01-18T23:11:29.606Z,35.47
2024-01-18T23:15:29.718Z,35.32
2024-01-18T23:19:29.842Z,34.94
2024-01-18T23:23:29.940Z,35.71
2024-01-18T23:27:30.029Z,35.74
2024-01-18T23:31:30.141Z,35.8
2024-01-18T23:35:30.365Z,35.37
2024-01-18T23:39:30.338Z,35.79
2024-01-18T23:43:30.509Z,35.86
2024-01-18T23:47:30.640Z,35.54
2024-01-18T23:51:30.707Z,34.9
2024-01-18T23:55:30.842Z,36.27
2024-01-18T23:59:30.979Z,34.93
